Date,TemperatureHighF,TemperatureAvgF,TemperatureLowF,DewpointHighF,DewpointAvgF,DewpointLowF,HumidityHigh,HumidityAvg,HumidityLow,PressureMaxIn,PressureMinIn,WindSpeedMaxMPH,WindSpeedAvgMPH,GustSpeedMaxMPH,PrecipitationSumIn
2013-1-1,9.0,-3.8,-14.0,5.0,-6.0,-16.0,94,90,81,30.18,29.96,9,2,11,0.00
2013-1-2,8.0,-6.2,-16.0,3.0,-8.4,-18.0,95,90,79,30.23,30.12,13,3,15,0.00
2013-1-3,8.0,-9.7,-22.0,3.0,-12.4,-24.0,93,88,76,30.34,30.22,13,3,13,0.00
2013-1-4,9.0,-5.4,-16.0,5.0,-7.8,-18.0,94,89,81,30.29,30.14,12,2,12,0.00
2013-1-5,15.0,-2.4,-14.0,10.0,-4.7,-16.0,95,90,78,30.41,30.19,15,2,15,0.00
2013-1-6,23.0,5.6,-8.0,15.0,2.6,-10.0,96,87,67,30.41,30.13,14,5,14,0.00
2013-1-7,25.0,7.4,-2.0,16.0,3.7,-4.0,94,85,65,30.16,30.05,13,4,14,0.00
2013-1-8,19.0,5.4,-6.0,12.0,1.9,-8.0,95,86,69,30.42,30.06,14,3,14,0.00
2013-1-9,27.0,7.8,-4.0,20.0,5.3,-6.0,98,90,74,30.53,30.22,14,5,15,0.00
2013-1-10,24.0,11.8,0.0,17.0,8.7,-1.0,96,88,70,30.22,29.58,14,3,14,0.00
2013-1-11,23.0,13.5,0.0,22.0,9.1,-2.0,99,83,53,29.73,29.33,24,7,31,0.00
2013-1-12,9.0,-6.7,-19.0,4.0,-9.8,-21.0,92,86,76,29.81,29.69,10,3,11,0.00
2013-1-13,8.0,-5.8,-20.0,3.0,-8.8,-22.0,92,86,74,29.84,29.75,9,2,9,0.00
2013-1-14,7.0,-7.1,-20.0,0.0,-10.6,-22.0,92,85,70,29.99,29.83,12,4,12,0.00
2013-1-15,4.0,-9.6,-28.0,1.0,-12.2,-31.0,92,88,80,30.33,29.98,12,3,19,0.00
2013-1-16,16.0,0.9,-9.0,11.0,-1.5,-11.0,98,90,78,30.49,30.32,13,4,13,0.00
2013-1-17,23.0,5.2,-4.0,19.0,3.3,-6.0,98,92,78,30.56,30.48,12,4,12,0.00
2013-1-18,20.0,3.4,-8.0,15.0,1.5,-9.0,97,92,79,30.49,30.38,13,5,13,0.00
2013-1-19,21.0,1.5,-8.0,15.0,-1.0,-9.0,95,90,74,30.55,30.37,12,4,13,0.00
2013-1-20,21.0,3.6,-10.0,14.0,0.2,-12.0,94,86,70,30.45,30.34,12,4,13,0.00
2013-1-21,23.0,5.2,-6.0,15.0,1.8,-8.0,95,86,67,30.44,30.36,12,4,12,0.00
2013-1-22,27.0,6.3,-5.0,15.0,1.8,-7.0,93,82,57,30.52,30.42,14,6,14,0.00
2013-1-23,24.0,7.7,-8.0,13.0,2.5,-11.0,91,80,60,30.56,30.46,13,4,14,0.00
2013-1-24,33.0,19.9,4.0,30.0,16.8,1.0,100,88,61,30.46,30.34,13,2,13,0.00
2013-1-25,40.0,31.8,27.0,35.0,31.1,27.0,100,97,84,30.38,30.27,10,1,11,0.00
2013-1-26,40.0,32.5,27.0,36.0,31.8,27.0,100,97,82,30.28,29.87,6,0,7,0.00
2013-1-27,41.0,30.9,17.0,37.0,29.5,16.0,100,95,78,29.98,29.88,10,1,11,0.00
2013-1-28,31.0,23.4,17.0,30.0,22.0,15.0,100,95,82,29.91,29.66,17,2,22,0.00
2013-1-29,18.0,10.1,0.0,17.0,6.4,-2.0,100,86,62,29.88,29.62,20,4,23,0.00
2013-1-30,24.0,12.8,-4.0,17.0,10.0,-5.0,100,89,70,30.13,29.88,13,4,17,0.00
2013-1-31,30.0,19.1,12.0,24.0,16.5,11.0,100,90,67,30.33,30.11,8,1,10,0.00
2013-2-1,28.0,17.3,8.0,22.0,14.9,8.0,100,91,75,30.40,30.24,17,2,22,0.00
2013-2-2,23.0,9.0,-2.0,19.0,6.9,-3.0,99,91,77,30.53,30.40,12,3,13,0.00
2013-2-3,23.0,11.0,1.0,17.0,8.1,0.0,97,89,74,30.45,30.12,12,3,14,0.00
2013-2-4,24.0,7.8,-5.0,20.0,5.9,-7.0,97,92,80,30.23,30.14,14,3,14,0.00
2013-2-5,25.0,10.0,-4.0,18.0,7.2,-5.0,97,89,74,30.27,30.10,14,4,14,0.00
2013-2-6,31.0,16.1,1.0,27.0,14.0,0.0,100,92,72,30.12,30.01,12,1,12,0.00
2013-2-7,25.0,10.8,-1.0,21.0,8.3,-3.0,100,90,75,30.28,30.12,14,4,14,0.00
2013-2-8,37.0,18.6,-2.0,26.0,13.8,-4.0,93,82,59,30.17,29.73,21,7,21,0.00
2013-2-9,30.0,23.2,11.0,26.0,18.5,6.0,98,83,56,29.73,29.50,14,4,22,0.00
2013-2-10,22.0,10.7,-4.0,15.0,7.5,-6.0,97,87,73,29.86,29.65,19,3,19,0.00
2013-2-11,25.0,11.8,-3.0,17.0,8.4,-5.0,97,87,61,30.01,29.82,12,3,13,0.00
2013-2-12,16.0,-0.2,-16.0,10.0,-3.1,-18.0,94,88,73,30.16,30.01,13,4,13,0.00
2013-2-13,22.0,6.7,-7.0,16.0,4.2,-9.0,96,89,78,30.21,30.13,12,3,13,0.00
2013-2-14,30.0,14.7,4.0,20.0,10.4,2.0,97,84,62,30.26,30.10,20,4,20,0.00
2013-2-15,28.0,15.2,1.0,18.0,9.9,-1.0,96,81,61,30.44,30.23,21,5,24,0.00
2013-2-16,24.0,7.9,-6.0,17.0,3.8,-8.0,95,84,65,30.46,30.24,14,3,14,0.00
2013-2-17,32.0,15.0,-4.0,25.0,9.3,-7.0,98,80,46,30.24,29.75,22,4,24,0.00
2013-2-18,24.0,13.5,-1.0,22.0,7.5,-4.0,99,78,52,30.15,29.77,22,5,22,0.00
2013-2-19,26.0,6.9,-11.0,12.0,0.8,-14.0,93,77,50,30.15,29.76,14,4,14,0.00
2013-2-20,35.0,18.6,5.0,26.0,14.6,1.0,100,85,52,29.76,29.49,14,5,15,0.00
2013-2-21,32.0,20.4,5.0,22.0,16.6,3.0,100,86,61,29.85,29.53,18,4,19,0.00
2013-2-22,26.0,9.4,-1.0,20.0,5.9,-3.0,96,86,67,29.99,29.82,13,3,13,0.00
2013-2-23,20.0,6.6,-11.0,16.0,4.1,-13.0,98,90,72,29.98,29.63,12,2,12,0.00
2013-2-24,23.0,9.1,-7.0,16.0,6.4,-9.0,100,89,72,29.97,29.63,10,2,12,0.00
2013-2-25,18.0,3.1,-12.0,14.0,1.2,-14.0,100,92,78,30.11,29.92,11,2,12,0.00
2013-2-26,23.0,10.2,-2.0,15.0,6.4,-3.0,97,85,66,30.07,29.77,22,5,23,0.00
2013-2-27,16.0,2.2,-15.0,10.0,-1.4,-16.0,93,85,75,30.27,30.07,12,2,13,0.00
2013-2-28,23.0,6.8,-15.0,18.0,2.5,-18.0,93,83,66,30.35,30.26,15,6,15,0.00
2013-3-1,37.0,24.9,15.0,24.0,19.2,12.0,96,80,56,30.53,30.31,19,6,24,0.00
2013-3-2,33.0,18.2,2.0,25.0,14.7,1.0,98,87,72,30.55,30.31,14,4,14,0.00
2013-3-3,42.0,25.9,10.0,33.0,22.3,9.0,100,87,64,30.31,29.88,15,4,16,0.00
2013-3-4,38.0,26.2,0.0,35.0,22.9,-3.0,100,88,56,30.24,29.82,25,5,35,0.00
2013-3-5,25.0,6.5,-12.0,16.0,1.8,-14.0,94,82,59,30.41,30.24,14,5,14,0.00
2013-3-6,31.0,15.6,0.0,22.0,11.1,-2.0,95,83,66,30.28,30.09,14,4,14,0.00
2013-3-7,41.0,22.8,9.0,26.0,15.4,8.0,94,75,44,30.14,30.08,13,6,13,0.00
2013-3-8,41.0,27.1,14.0,31.0,22.2,9.0,100,83,55,30.10,29.71,22,4,24,0.00
2013-3-9,31.0,25.0,18.0,27.0,21.4,14.0,98,87,68,29.99,29.63,25,6,25,0.00
2013-3-10,32.0,18.2,1.0,20.0,12.1,-1.0,91,78,59,30.26,29.99,15,4,19,0.00
2013-3-11,37.0,19.9,2.0,27.0,15.1,0.0,98,83,61,30.26,30.16,14,4,16,0.00
2013-3-12,39.0,28.9,16.0,28.0,23.9,15.0,100,83,57,30.42,30.19,13,2,13,0.00
2013-3-13,42.0,26.6,11.0,30.0,21.2,10.0,96,81,60,30.53,30.40,11,3,12,0.00
2013-3-14,43.0,28.5,14.0,29.0,21.8,13.0,94,77,51,30.60,30.50,11,3,12,0.00
2013-3-15,45.0,30.3,16.0,29.0,22.7,15.0,95,75,49,30.49,30.18,12,3,12,0.00
2013-3-16,38.0,30.9,25.0,36.0,29.5,23.0,100,95,85,30.18,29.99,16,5,16,0.00
2013-3-17,40.0,29.4,23.0,31.0,23.9,12.0,100,82,51,29.99,29.76,26,6,32,0.00
2013-3-18,34.0,27.8,22.0,25.0,15.9,10.0,94,62,45,30.07,29.90,24,8,31,0.00
2013-3-19,38.0,28.2,12.0,17.0,11.6,1.0,72,51,28,30.34,30.05,18,6,19,0.00
2013-3-20,39.0,22.1,4.0,30.0,13.4,-2.0,99,71,41,30.34,29.99,13,4,15,0.00
2013-3-21,37.0,28.0,9.0,34.0,26.1,6.0,100,93,74,29.99,29.73,26,4,27,0.00
2013-3-22,34.0,18.1,0.0,16.0,8.9,-1.0,96,71,40,29.92,29.65,21,6,34,0.00
2013-3-23,24.0,15.3,1.0,16.0,8.4,-3.0,93,75,52,30.04,29.69,19,7,23,0.00
2013-3-24,23.0,7.2,-10.0,13.0,0.8,-12.0,93,76,53,30.11,29.97,17,5,21,0.00
2013-3-25,32.0,8.4,-13.0,15.0,-0.5,-16.0,88,68,42,30.22,30.10,15,6,16,0.00
2013-3-26,44.0,25.3,3.0,27.0,16.3,-2.0,91,71,40,30.22,30.06,22,6,29,0.00
2013-3-27,51.0,34.5,22.0,30.0,24.1,20.0,95,69,33,30.22,30.06,14,4,16,0.00
2013-3-28,51.0,33.1,18.0,31.0,23.4,15.0,91,69,40,30.29,30.21,12,3,14,0.00
2013-3-29,49.0,35.2,22.0,35.0,28.9,20.0,98,79,50,30.37,30.28,26,5,27,0.00
2013-3-30,49.0,36.5,25.0,34.0,28.4,24.0,98,75,44,30.36,30.24,21,3,23,0.00
2013-3-31,51.0,34.2,19.0,28.0,23.8,17.0,93,69,40,30.30,30.22,11,4,11,0.00
2013-4-1,47.0,35.0,23.0,35.0,28.8,21.0,99,79,56,30.22,30.02,20,4,22,0.00
2013-4-2,48.0,34.9,23.0,33.0,26.7,21.0,98,75,36,30.12,29.98,16,3,25,0.00
2013-4-3,47.0,33.1,21.0,35.0,25.0,20.0,100,75,39,30.35,30.10,14,3,17,0.00
2013-4-4,51.0,34.6,18.0,29.0,23.3,16.0,95,67,35,30.38,30.29,11,4,11,0.00
2013-4-5,54.0,36.8,24.0,37.0,28.4,21.0,100,76,35,30.29,30.08,23,5,23,0.00
2013-4-6,48.0,36.6,28.0,36.0,28.7,17.0,100,78,32,30.15,30.05,22,4,22,0.00
2013-4-7,48.0,37.6,29.0,36.0,29.8,23.0,100,76,41,30.11,29.91,23,3,30,0.00
2013-4-8,55.0,38.3,28.0,37.0,31.7,26.0,100,82,35,29.93,29.51,30,7,33,0.00
2013-4-9,37.0,30.1,19.0,35.0,28.5,18.0,100,94,70,29.88,29.51,22,5,26,0.00
2013-4-10,35.0,21.6,7.0,26.0,16.5,6.0,99,82,62,30.01,29.87,18,4,23,0.00
2013-4-11,42.0,30.0,19.0,31.0,25.2,16.0,99,83,60,30.00,29.92,21,4,22,0.00
2013-4-12,45.0,33.3,25.0,39.0,28.7,23.0,100,84,52,30.09,29.97,16,4,18,0.00
2013-4-13,52.0,35.6,17.0,35.0,25.6,16.0,100,71,32,30.08,29.62,28,7,34,0.00
2013-4-14,38.0,31.8,28.0,34.0,24.8,15.0,100,77,49,29.83,29.61,24,4,31,0.00
2013-4-15,44.0,35.0,26.0,37.0,32.3,25.0,100,90,71,29.76,29.63,18,7,20,0.00
2013-4-16,53.0,37.6,21.0,32.0,26.3,20.0,99,69,33,29.78,29.63,31,9,41,0.00
2013-4-17,38.0,29.5,17.0,33.0,25.0,12.0,98,84,63,29.93,29.67,26,8,31,0.00
2013-4-18,28.0,19.8,10.0,15.0,10.2,5.0,87,66,52,30.27,29.94,26,9,26,0.00
2013-4-19,41.0,25.0,5.0,25.0,15.4,3.0,93,69,46,30.29,30.11,16,5,20,0.00
2013-4-20,46.0,34.7,26.0,33.0,29.1,24.0,100,82,53,30.18,30.04,21,4,24,0.00
2013-4-21,49.0,36.2,18.0,33.0,26.5,18.0,100,72,32,30.27,30.13,13,3,17,0.00
2013-4-22,51.0,40.7,31.0,41.0,30.0,21.0,100,71,33,30.17,29.95,25,6,32,0.00
2013-4-23,38.0,30.9,20.0,33.0,22.7,11.0,100,74,45,30.21,29.96,20,7,24,0.00
2013-4-24,45.0,29.4,15.0,21.0,15.8,11.0,88,61,31,30.30,30.17,13,4,19,0.00
2013-4-25,56.0,38.1,21.0,28.0,21.3,18.0,89,57,25,30.29,30.09,24,5,30,0.00
2013-4-26,56.0,39.8,23.0,26.0,21.6,14.0,91,56,19,30.44,30.17,19,6,20,0.00
2013-4-27,58.0,41.3,23.0,27.0,22.2,15.0,92,55,18,30.45,30.33,19,5,20,0.00
2013-4-28,63.0,44.6,25.0,30.0,24.7,20.0,92,53,21,30.37,30.19,18,4,20,0.00
2013-4-29,64.0,47.6,28.0,32.0,26.4,17.0,94,52,18,30.21,30.01,26,6,30,0.00
2013-4-30,64.0,50.0,29.0,32.0,25.0,19.0,92,45,18,30.01,29.90,33,8,53,0.00
2013-5-1,49.0,38.3,26.0,41.0,29.2,18.0,99,72,37,30.44,29.91,26,8,30,0.00
2013-5-2,45.0,31.3,17.0,19.0,14.4,8.0,87,54,27,30.60,30.45,23,6,26,0.00
2013-5-3,58.0,37.5,17.0,24.0,16.6,10.0,92,52,17,30.53,30.18,20,5,20,0.00
2013-5-4,59.0,43.2,22.0,31.0,23.4,16.0,92,53,20,30.24,30.12,20,5,24,0.00
2013-5-5,60.0,43.9,30.0,35.0,29.4,21.0,94,62,24,30.24,30.18,20,5,24,0.00
2013-5-6,54.0,40.6,35.0,42.0,36.3,33.0,100,86,46,30.24,30.11,19,3,21,0.00
2013-5-7,51.0,40.9,33.0,43.0,37.6,33.0,100,89,59,30.20,30.14,19,2,21,0.00
2013-5-8,47.0,36.5,32.0,38.0,33.8,32.0,100,91,66,30.22,30.10,15,4,15,0.00
2013-5-9,52.0,40.9,31.0,42.0,34.5,31.0,100,81,48,30.37,30.17,13,2,14,0.00
2013-5-10,55.0,41.5,27.0,36.0,31.5,27.0,100,72,41,30.53,30.34,17,5,20,0.00
2013-5-11,63.0,45.5,28.0,35.0,30.0,25.0,99,62,24,30.58,30.51,19,6,23,0.00
2013-5-12,65.0,49.6,32.0,39.0,33.9,30.0,97,61,28,30.57,30.48,19,7,22,0.00
2013-5-13,73.0,51.9,32.0,41.0,35.8,31.0,96,61,26,30.58,30.45,23,6,28,0.00
2013-5-14,72.0,52.0,33.0,45.0,38.8,33.0,98,66,26,30.49,30.28,20,6,21,0.00
2013-5-15,67.0,47.0,34.0,47.0,39.8,33.0,99,80,36,30.34,30.18,24,5,33,0.00
2013-5-16,68.0,51.7,32.0,45.0,35.0,28.0,100,62,23,30.24,30.13,18,5,22,0.00
2013-5-17,75.0,53.0,32.0,36.0,29.2,18.0,94,50,13,30.24,30.11,20,5,25,0.00
2013-5-18,58.0,42.7,31.0,40.0,33.3,27.0,100,73,38,30.19,30.06,24,4,26,0.00
2013-5-19,51.0,39.6,31.0,40.0,35.1,30.0,100,86,52,30.13,30.06,22,5,27,0.00
2013-5-20,55.0,39.1,26.0,42.0,34.3,26.0,100,86,45,30.24,30.09,24,4,24,0.00
2013-5-21,59.0,45.3,29.0,38.0,32.3,28.0,100,66,34,30.24,30.14,22,4,26,0.00
2013-5-22,70.0,50.4,29.0,37.0,31.6,26.0,96,57,21,30.17,30.07,23,5,28,0.00
2013-5-23,76.0,54.9,32.0,36.0,28.2,18.0,93,46,12,30.21,30.12,32,8,38,0.00
2013-5-24,74.0,54.6,31.0,32.0,26.6,20.0,84,42,14,30.32,30.21,21,6,33,0.00
2013-5-25,76.0,53.4,30.0,33.0,26.0,14.0,90,45,10,30.34,30.25,20,6,21,0.00
2013-5-26,75.0,54.4,32.0,33.0,28.3,19.0,89,45,13,30.29,30.18,21,6,24,0.00
2013-5-27,68.0,51.2,30.0,31.0,25.9,18.0,86,45,15,30.27,30.09,23,6,25,0.00
2013-5-28,69.0,49.2,30.0,35.0,30.2,25.0,90,54,21,30.13,29.91,21,6,23,0.00
2013-5-29,56.0,44.9,37.0,42.0,36.5,29.0,99,75,37,30.00,29.88,30,5,34,0.00
2013-5-30,59.0,46.5,30.0,35.0,27.1,21.0,98,53,23,30.13,29.96,32,10,37,0.00
2013-5-31,59.0,48.7,36.0,36.0,24.1,15.0,90,41,20,30.32,30.11,30,8,31,0.00
2013-6-1,66.0,48.0,27.0,33.0,26.0,21.0,88,49,19,30.40,30.32,16,4,18,0.00
2013-6-2,74.0,52.7,29.0,37.0,30.0,20.0,95,51,15,30.39,30.21,25,6,33,0.00
2013-6-3,74.0,54.3,34.0,40.0,33.0,23.0,93,53,16,30.29,30.17,37,7,44,0.00
2013-6-4,72.0,54.7,35.0,45.0,37.4,30.0,97,59,23,30.33,30.24,21,5,28,0.00
2013-6-5,71.0,56.7,37.0,41.0,33.5,22.0,92,50,17,30.34,30.26,26,7,27,0.00
2013-6-6,74.0,54.5,33.0,40.0,33.9,29.0,91,53,20,30.36,30.28,16,5,19,0.00
2013-6-7,71.0,55.5,39.0,44.0,38.0,33.0,92,57,27,30.37,30.22,23,6,31,0.00
2013-6-8,74.0,57.3,36.0,46.0,37.7,32.0,96,55,22,30.31,30.19,22,7,25,0.00
2013-6-9,80.0,60.0,37.0,44.0,36.4,28.0,93,51,15,30.42,30.31,19,5,19,0.00
2013-6-10,84.0,63.3,39.0,45.0,36.4,26.0,92,47,13,30.41,30.29,20,7,24,0.00
2013-6-11,79.0,61.2,42.0,42.0,31.6,20.0,84,42,12,30.46,30.31,31,6,37,0.00
2013-6-12,81.0,60.0,37.0,41.0,33.8,24.0,89,46,13,30.52,30.41,21,6,23,0.00
2013-6-13,79.0,60.3,41.0,46.0,37.1,27.0,84,48,16,30.50,30.34,26,6,45,0.00
2013-6-14,79.0,61.8,42.0,48.0,35.5,22.0,92,46,13,30.39,30.27,29,5,29,0.00
2013-6-15,75.0,56.2,33.0,42.0,33.6,27.0,88,49,19,30.44,30.32,28,5,29,0.00
2013-6-16,71.0,53.5,38.0,50.0,42.4,36.0,93,68,31,30.47,30.39,23,5,23,0.00
2013-6-17,76.0,56.6,38.0,46.0,40.0,30.0,99,62,19,30.46,30.36,29,5,31,0.00
2013-6-18,76.0,55.7,38.0,49.0,40.4,30.0,97,64,20,30.43,30.22,17,5,29,0.00
2013-6-19,80.0,58.2,34.0,39.0,27.3,8.0,90,43,7,30.26,30.13,25,6,32,0.00
2013-6-20,79.0,58.4,35.0,38.0,30.6,23.0,81,43,13,30.27,30.20,21,6,23,0.00
2013-6-21,78.0,59.4,35.0,38.0,30.9,22.0,87,43,14,30.30,30.22,24,6,27,0.00
2013-6-22,76.0,57.8,35.0,41.0,30.9,19.0,86,44,13,30.27,30.20,25,7,27,0.00
2013-6-23,76.0,56.4,34.0,43.0,34.0,24.0,89,50,16,30.29,30.17,30,5,38,0.00
2013-6-24,77.0,57.7,36.0,46.0,30.8,21.0,92,46,14,30.26,30.18,22,6,28,0.00
2013-6-25,77.0,62.9,46.0,42.0,34.3,27.0,72,37,20,30.46,30.23,19,4,23,0.00
2013-6-26,82.0,62.9,39.0,48.0,39.0,33.0,93,50,18,30.58,30.45,17,5,17,0.00
2013-6-27,88.0,66.7,42.0,45.0,38.1,25.0,91,45,11,30.68,30.56,19,6,23,0.00
2013-6-28,85.0,65.4,46.0,51.0,44.1,35.0,89,52,17,30.68,30.55,12,4,18,0.00
2013-6-29,81.0,63.6,48.0,52.0,46.0,39.0,92,58,23,30.64,30.46,20,4,21,0.00
2013-6-30,80.0,61.9,44.0,53.0,44.8,39.0,97,60,26,30.56,30.41,24,5,28,0.00
2013-7-1,80.0,62.7,42.0,50.0,40.5,33.0,97,53,19,30.57,30.45,19,5,20,0.00
2013-7-2,81.0,63.1,43.0,50.0,41.1,30.0,93,52,19,30.53,30.40,17,5,19,0.00
2013-7-3,79.0,58.9,40.0,48.0,41.2,33.0,93,59,19,30.45,30.30,29,6,29,0.00
2013-7-4,82.0,65.1,47.0,50.0,44.0,33.0,90,53,18,30.39,30.27,12,4,16,0.00
2013-7-5,79.0,65.0,52.0,51.0,47.8,44.0,88,57,29,30.32,30.22,19,4,24,0.00
2013-7-6,80.0,64.2,52.0,53.0,48.2,43.0,87,60,28,30.40,30.29,15,3,22,0.00
2013-7-7,83.0,64.0,49.0,55.0,49.9,43.0,96,67,24,30.53,30.34,16,3,20,0.00
2013-7-8,80.0,63.1,47.0,54.0,46.9,37.0,98,63,22,30.57,30.50,21,5,23,0.00
2013-7-9,82.0,64.5,44.0,50.0,41.2,29.0,93,52,16,30.64,30.53,16,5,21,0.00
2013-7-10,82.0,65.9,50.0,61.0,46.7,37.0,89,55,20,30.60,30.41,18,5,26,0.00
2013-7-11,78.0,59.5,38.0,50.0,43.9,35.0,93,61,24,30.51,30.34,32,5,32,0.00
2013-7-12,78.0,61.0,50.0,58.0,51.6,47.0,95,74,38,30.50,30.40,23,3,27,0.00
2013-7-13,76.0,60.4,50.0,58.0,53.2,47.0,99,80,37,30.57,30.48,34,3,34,0.00
2013-7-14,76.0,60.7,49.0,58.0,51.9,46.0,100,77,39,30.55,30.42,17,3,18,0.00
2013-7-15,72.0,57.5,46.0,58.0,52.2,46.0,100,85,50,30.52,30.37,15,4,18,0.00
2013-7-16,77.0,60.6,50.0,59.0,53.7,49.0,100,81,44,30.54,30.41,15,4,17,0.00
2013-7-17,81.0,61.7,46.0,60.0,52.7,46.0,99,76,36,30.59,30.50,16,3,17,0.00
2013-7-18,78.0,59.8,48.0,58.0,53.0,48.0,100,80,46,30.58,30.48,22,3,22,0.00
2013-7-19,76.0,59.2,45.0,56.0,50.6,45.0,100,77,39,30.57,30.44,15,3,21,0.00
2013-7-20,80.0,62.2,45.0,59.0,46.0,35.0,100,64,20,30.50,30.30,17,4,20,0.00
2013-7-21,81.0,63.2,43.0,52.0,42.2,34.0,93,53,19,30.40,30.33,11,4,13,0.00
2013-7-22,84.0,63.5,44.0,54.0,41.5,30.0,93,52,16,30.46,30.37,16,4,16,0.00
2013-7-23,85.0,62.3,41.0,45.0,37.7,25.0,88,49,12,30.53,30.40,21,6,26,0.00
2013-7-24,69.0,57.6,49.0,53.0,47.8,44.0,91,71,47,30.64,30.46,21,3,24,0.00
2013-7-25,75.0,61.9,50.0,57.0,49.2,44.0,100,68,35,30.54,30.45,19,4,23,0.00
2013-7-26,80.0,61.8,35.0,49.0,42.5,34.0,98,58,19,30.58,30.49,17,5,18,0.00
2013-7-27,80.0,57.8,44.0,54.0,47.9,41.0,99,74,27,30.54,30.35,23,5,26,0.00
2013-7-28,65.0,56.4,53.0,59.0,54.0,51.0,100,92,60,30.40,30.28,10,1,10,0.00
2013-7-29,71.0,58.1,47.0,56.0,50.4,46.0,100,79,44,30.59,30.34,27,3,32,0.00
2013-7-30,74.0,58.3,42.0,56.0,47.4,42.0,100,72,37,30.67,30.58,15,3,18,0.00
2013-7-31,80.0,59.7,41.0,52.0,44.6,39.0,99,64,24,30.71,30.55,13,5,17,0.00
2013-8-1,63.0,53.1,45.0,56.0,49.8,43.0,99,89,70,30.63,30.47,12,4,13,0.00
2013-8-2,76.0,62.5,49.0,56.0,48.8,36.0,100,67,26,30.49,30.42,21,4,23,0.00
2013-8-3,76.0,58.0,47.0,57.0,50.5,46.0,99,80,39,30.58,30.48,16,4,19,0.00
2013-8-4,74.0,55.6,41.0,58.0,49.8,41.0,100,83,48,30.58,30.51,15,4,22,0.00
2013-8-5,73.0,56.9,46.0,59.0,51.4,46.0,100,84,43,30.54,30.42,19,4,23,0.00
2013-8-6,71.0,53.7,44.0,58.0,50.4,44.0,100,89,57,30.51,30.42,14,4,17,0.00
2013-8-7,62.0,51.4,47.0,54.0,49.1,47.0,100,92,67,30.47,30.37,14,3,15,0.00
2013-8-8,70.0,53.7,46.0,53.0,47.4,43.0,100,82,39,30.50,30.34,20,3,23,0.00
2013-8-9,70.0,56.0,41.0,51.0,45.7,41.0,100,73,37,30.57,30.43,20,4,25,0.00
2013-8-10,71.0,54.8,39.0,51.0,45.2,39.0,100,74,36,30.61,30.49,20,4,24,0.00
2013-8-11,74.0,54.7,39.0,52.0,44.9,39.0,100,74,35,30.58,30.46,15,4,18,0.00
2013-8-12,68.0,52.5,42.0,52.0,45.7,41.0,100,80,43,30.56,30.48,22,5,27,0.00
2013-8-13,71.0,53.1,36.0,51.0,42.9,36.0,100,74,37,30.56,30.49,19,4,25,0.00
2013-8-14,72.0,53.8,37.0,48.0,41.5,35.0,100,69,27,30.56,30.48,18,5,26,0.00
2013-8-15,75.0,55.6,36.0,45.0,40.1,35.0,98,64,25,30.57,30.52,20,6,22,0.00
2013-8-16,78.0,57.2,37.0,46.0,39.7,32.0,97,60,18,30.59,30.50,12,5,14,0.00
2013-8-17,81.0,60.6,40.0,46.0,40.9,32.0,95,56,18,30.58,30.45,12,5,15,0.00
2013-8-18,79.0,56.4,44.0,55.0,48.5,42.0,97,79,30,30.58,30.48,12,4,16,0.00
2013-8-19,80.0,59.2,42.0,55.0,47.0,42.0,100,70,30,30.56,30.44,16,4,25,0.00
2013-8-20,79.0,58.3,44.0,53.0,48.1,42.0,99,74,28,30.55,30.42,16,4,21,0.00
2013-8-21,78.0,57.0,43.0,55.0,49.5,43.0,100,80,32,30.57,30.45,13,4,16,0.00
2013-8-22,77.0,61.2,48.0,55.0,50.1,44.0,99,72,32,30.58,30.45,12,3,17,0.00
2013-8-23,74.0,58.7,45.0,55.0,49.0,42.0,100,75,34,30.49,30.35,16,5,26,0.00
2013-8-24,69.0,56.1,46.0,54.0,49.3,45.0,100,81,44,30.51,30.40,20,3,22,0.00
2013-8-25,69.0,58.1,48.0,57.0,52.7,48.0,100,83,58,30.58,30.49,13,2,21,0.00
2013-8-26,74.0,62.1,53.0,56.0,53.5,51.0,99,76,44,30.60,30.51,16,2,17,0.00
2013-8-27,80.0,60.9,44.0,55.0,48.5,41.0,100,70,25,30.57,30.44,12,4,16,0.00
2013-8-28,79.0,61.0,45.0,56.0,49.5,39.0,100,72,26,30.57,30.46,14,5,16,0.00
2013-8-29,82.0,61.9,44.0,54.0,48.7,43.0,99,68,26,30.69,30.55,15,5,19,0.00
2013-8-30,79.0,60.9,52.0,55.0,51.2,43.0,98,75,28,30.67,30.52,23,4,27,0.00
2013-8-31,75.0,60.6,46.0,54.0,50.7,46.0,99,73,41,30.55,30.46,14,4,20,0.00
2013-9-1,77.0,58.9,46.0,55.0,50.3,46.0,100,77,37,30.56,30.45,22,4,22,0.00
2013-9-2,79.0,61.6,49.0,54.0,49.9,45.0,99,70,31,30.57,30.47,14,3,16,0.00
2013-9-3,79.0,60.8,45.0,52.0,47.6,43.0,98,67,29,30.59,30.48,17,5,18,0.00
2013-9-4,79.0,59.0,49.0,59.0,51.4,45.0,96,79,31,30.64,30.55,14,4,23,0.00
2013-9-5,82.0,62.1,45.0,55.0,48.6,36.0,100,69,19,30.66,30.52,11,3,14,0.00
2013-9-6,80.0,60.8,44.0,54.0,47.6,41.0,100,67,28,30.62,30.48,22,5,22,0.00
2013-9-7,80.0,59.5,43.0,50.0,45.7,36.0,98,66,21,30.55,30.42,26,5,26,0.00
2013-9-8,76.0,59.3,46.0,53.0,47.8,40.0,97,70,29,30.48,30.27,17,4,25,0.00
2013-9-9,63.0,53.4,44.0,57.0,51.0,44.0,100,92,68,30.35,30.26,14,3,19,0.00
2013-9-10,66.0,55.9,50.0,55.0,52.1,47.0,100,88,58,30.42,30.30,23,2,28,0.00
2013-9-11,72.0,57.4,50.0,55.0,52.0,48.0,100,84,45,30.47,30.39,19,2,19,0.00
2013-9-12,69.0,55.6,46.0,56.0,51.2,46.0,100,87,51,30.50,30.37,26,3,29,0.00
2013-9-13,67.0,54.7,49.0,54.0,50.3,46.0,100,87,51,30.42,30.24,23,3,26,0.00
2013-9-14,58.0,51.0,45.0,54.0,49.2,45.0,100,94,77,30.32,30.24,13,2,15,0.00
2013-9-15,65.0,50.9,44.0,52.0,47.8,44.0,100,90,56,30.47,30.29,20,3,21,0.00
2013-9-16,66.0,55.0,43.0,54.0,47.9,42.0,100,79,49,30.50,30.39,13,3,15,0.00
2013-9-17,70.0,51.2,37.0,52.0,44.3,37.0,100,81,37,30.46,30.24,20,4,20,0.00
2013-9-18,63.0,49.4,43.0,54.0,46.7,42.0,100,92,51,30.31,30.21,24,3,34,0.00
2013-9-19,65.0,49.1,37.0,51.0,40.6,34.0,100,78,33,30.40,30.26,18,4,19,0.00
2013-9-20,69.0,46.8,29.0,41.0,34.0,28.0,100,68,23,30.43,30.35,15,5,15,0.00
2013-9-21,68.0,49.6,33.0,45.0,39.6,33.0,100,73,37,30.39,30.20,16,4,18,0.00
2013-9-22,63.0,46.6,39.0,51.0,44.8,39.0,100,94,63,30.21,29.91,17,2,22,0.00
2013-9-23,53.0,42.9,32.0,41.0,36.5,32.0,100,81,47,30.41,29.91,31,6,31,0.00
2013-9-24,64.0,42.8,27.0,40.0,32.4,27.0,100,74,26,30.46,30.26,11,4,15,0.00
2013-9-25,70.0,47.8,29.0,39.0,32.8,28.0,100,64,23,30.26,29.90,27,8,32,0.00
2013-9-26,66.0,48.4,31.0,38.0,31.1,25.0,97,59,22,30.02,29.94,29,7,30,0.00
2013-9-27,50.0,40.5,31.0,43.0,35.8,29.0,100,85,50,30.25,29.90,21,4,27,0.00
2013-9-28,56.0,36.3,22.0,37.0,29.9,21.0,100,81,42,30.47,30.24,13,2,13,0.00
2013-9-29,61.0,39.8,24.0,36.0,29.3,23.0,98,72,25,30.46,30.34,15,5,21,0.00
2013-9-30,67.0,45.3,29.0,37.0,32.4,28.0,96,67,29,30.38,30.24,15,5,19,0.00
2013-10-1,71.0,46.1,28.0,38.0,31.7,27.0,99,65,22,30.36,30.22,17,6,17,0.00
2013-10-2,67.0,44.1,27.0,36.0,31.2,26.0,95,67,24,30.32,30.16,17,5,18,0.00
2013-10-3,60.0,44.2,26.0,40.0,30.1,25.0,97,64,29,30.16,29.88,22,6,24,0.00
2013-10-4,42.0,30.6,21.0,37.0,25.0,19.0,95,81,51,30.34,29.90,20,6,24,0.00
2013-10-5,50.0,31.9,20.0,26.0,21.2,11.0,99,71,24,30.52,30.32,20,4,20,0.00
2013-10-6,62.0,36.3,18.0,33.0,24.9,17.0,96,69,29,30.56,30.48,12,4,15,0.00
2013-10-7,69.0,41.4,23.0,34.0,28.1,21.0,96,66,24,30.53,30.34,16,5,16,0.00
2013-10-8,65.0,44.1,28.0,35.0,30.8,27.0,95,66,28,30.33,30.07,18,5,23,0.00
2013-10-9,62.0,44.2,29.0,36.0,29.1,23.0,96,62,25,30.11,30.03,22,6,24,0.00
2013-10-10,47.0,39.3,31.0,39.0,34.3,30.0,100,84,59,30.09,29.80,27,4,28,0.00
2013-10-11,45.0,35.9,31.0,40.0,33.5,31.0,100,92,70,30.24,29.93,13,2,15,0.00
2013-10-12,53.0,36.9,28.0,34.0,30.8,27.0,100,82,41,30.33,30.24,11,3,11,0.00
2013-10-13,58.0,40.0,25.0,40.0,31.6,25.0,99,77,36,30.33,30.08,24,7,27,0.00
2013-10-14,43.0,34.7,28.0,38.0,33.4,28.0,100,96,67,30.26,30.02,17,2,26,0.00
2013-10-15,41.0,32.2,26.0,35.0,29.3,25.0,100,90,68,30.25,30.16,16,3,17,0.00
2013-10-16,41.0,30.2,20.0,28.0,24.4,20.0,99,81,50,30.26,30.15,26,5,26,0.00
2013-10-17,47.0,30.4,17.0,27.0,21.9,16.0,97,75,36,30.26,30.11,19,4,19,0.00
2013-10-18,41.0,30.7,21.0,30.0,22.3,14.0,100,74,36,30.34,30.09,26,6,26,0.00
2013-10-19,50.0,30.2,15.0,26.0,21.0,14.0,96,73,36,30.34,30.23,19,5,19,0.00
2013-10-20,50.0,33.2,20.0,30.0,24.2,19.0,98,74,39,30.24,30.10,21,5,21,0.00
2013-10-21,50.0,33.5,19.0,31.0,24.8,19.0,100,76,33,30.41,30.18,16,4,18,0.00
2013-10-22,58.0,34.9,19.0,30.0,25.2,19.0,98,73,31,30.48,30.35,13,5,15,0.00
2013-10-23,60.0,35.9,21.0,32.0,24.5,20.0,98,70,22,30.45,30.37,12,5,14,0.00
2013-10-24,58.0,36.8,22.0,29.0,25.0,21.0,96,68,29,30.45,30.37,15,4,16,0.00
2013-10-25,49.0,35.4,24.0,39.0,30.0,23.0,98,82,54,30.44,30.34,19,6,19,0.00
2013-10-26,55.0,38.2,28.0,39.0,31.9,26.0,100,81,43,30.55,30.43,16,3,17,0.00
2013-10-27,53.0,34.4,21.0,33.0,26.5,20.0,100,77,36,30.43,30.10,14,4,16,0.00
2013-10-28,56.0,39.2,24.0,34.0,25.9,22.0,100,65,29,30.10,29.96,24,8,27,0.00
2013-10-29,48.0,37.0,29.0,35.0,28.1,22.0,100,73,39,30.04,29.88,24,6,37,0.00
2013-10-30,36.0,27.8,19.0,33.0,25.3,19.0,99,91,73,30.04,29.97,10,2,11,0.00
2013-10-31,35.0,27.3,20.0,29.0,24.3,19.0,100,89,66,30.15,30.01,18,4,19,0.00
2013-11-1,40.0,30.4,20.0,30.0,26.2,19.0,100,86,58,30.45,30.14,21,4,24,0.00
2013-11-2,51.0,28.3,14.0,25.0,19.6,13.0,99,76,28,30.47,30.15,16,5,16,0.00
2013-11-3,49.0,32.0,19.0,32.0,24.8,17.0,99,78,42,30.15,29.82,26,5,30,0.00
2013-11-4,42.0,29.5,15.0,30.0,24.2,14.0,100,82,56,30.05,29.91,13,4,18,0.00
2013-11-5,30.0,23.5,9.0,30.0,17.5,7.0,100,80,50,30.33,29.91,21,6,22,0.00
2013-11-6,35.0,19.0,5.0,24.0,14.5,4.0,96,84,58,30.58,30.33,14,4,15,0.00
2013-11-7,49.0,26.9,12.0,28.0,20.7,11.0,100,80,42,30.63,30.33,10,4,11,0.00
2013-11-8,50.0,31.6,17.0,28.0,21.7,16.0,98,73,34,30.34,30.22,20,6,29,0.00
2013-11-9,51.0,31.4,19.0,27.0,22.5,18.0,98,74,35,30.45,30.31,12,5,14,0.00
2013-11-10,53.0,30.7,18.0,26.0,21.5,16.0,97,73,31,30.52,30.45,13,5,17,0.00
2013-11-11,52.0,31.2,17.0,27.0,22.1,16.0,98,74,31,30.66,30.48,11,4,12,0.00
2013-11-12,53.0,31.2,19.0,27.0,21.5,18.0,97,72,33,30.74,30.63,11,5,12,0.00
2013-11-13,50.0,31.5,16.0,25.0,20.4,14.0,94,68,31,30.65,30.25,14,4,18,0.00
2013-11-14,49.0,31.9,19.0,30.0,22.2,15.0,98,72,27,30.26,29.99,12,3,15,0.00
2013-11-15,42.0,29.2,17.0,33.0,25.0,15.0,100,87,45,29.99,29.66,19,3,26,0.00
2013-11-16,36.0,29.8,26.0,31.0,28.7,26.0,100,96,68,29.72,29.58,38,8,39,0.00
2013-11-17,41.0,29.5,13.0,29.0,23.7,12.0,100,80,60,30.32,29.71,48,10,48,0.00
2013-11-18,33.0,17.3,5.0,28.0,15.5,4.0,100,94,77,30.44,30.29,12,4,12,0.00
2013-11-19,34.0,22.0,8.0,29.0,20.1,7.0,100,93,75,30.29,30.01,12,3,12,0.00
2013-11-20,41.0,32.6,27.0,36.0,31.0,27.0,100,95,73,30.04,29.94,9,1,12,0.00
2013-11-21,41.0,32.4,29.0,38.0,31.9,29.0,100,98,87,30.27,29.96,14,3,15,0.00
2013-11-22,34.0,30.5,28.0,34.0,29.7,26.0,100,97,86,30.39,30.25,17,5,18,0.00
2013-11-23,36.0,30.2,24.0,33.0,29.1,24.0,100,96,84,30.42,30.25,13,2,13,0.00
2013-11-24,33.0,28.6,22.0,32.0,28.1,22.0,100,98,91,30.25,29.99,9,2,11,0.00
2013-11-25,32.0,20.5,12.0,29.0,19.7,12.0,100,97,85,30.38,30.01,13,2,13,0.00
2013-11-26,26.0,12.2,3.0,24.0,11.6,2.0,100,98,93,30.50,30.38,9,1,12,0.00
2013-11-27,28.0,12.4,1.0,25.0,11.1,0.0,100,95,84,30.45,30.27,11,2,12,0.00
2013-11-28,36.0,17.7,5.0,27.0,15.2,4.0,100,91,65,30.32,30.26,12,5,12,0.00
2013-11-29,33.0,16.6,4.0,26.0,14.2,3.0,99,91,72,30.43,30.32,13,4,13,0.00
2013-11-30,31.0,14.1,3.0,24.0,11.7,2.0,98,91,74,30.46,30.36,13,5,13,0.00
2013-12-1,34.0,17.0,1.0,26.0,14.2,0.0,99,89,70,30.41,30.24,12,4,13,0.00
2013-12-2,41.0,33.3,27.0,29.0,26.4,23.0,95,77,56,30.25,29.82,14,3,18,0.00
2013-12-3,34.0,29.1,23.0,32.0,27.1,20.0,100,92,73,29.83,29.44,19,4,21,0.00
2013-12-4,31.0,20.3,-5.0,30.0,18.4,-6.0,100,92,76,29.83,29.33,24,8,31,0.00
2013-12-5,5.0,-5.7,-20.0,1.0,-7.8,-22.0,96,90,81,29.84,29.73,11,4,11,0.00
2013-12-6,13.0,-0.3,-8.0,7.0,-3.2,-10.0,96,87,72,30.02,29.78,9,2,11,0.00
2013-12-7,18.0,10.4,-2.0,16.0,9.1,-4.0,100,94,83,30.01,29.55,14,4,14,0.00
2013-12-8,18.0,9.9,-2.0,15.0,7.1,-4.0,100,89,65,29.86,29.47,25,6,30,0.00
2013-12-9,8.0,-4.8,-18.0,1.0,-8.1,-20.0,93,86,69,30.34,29.85,14,3,15,0.00
2013-12-10,4.0,-8.9,-22.0,-1.0,-11.5,-24.0,94,88,78,30.37,30.22,12,2,13,0.00
2013-12-11,15.0,2.4,-5.0,11.0,0.6,-6.0,97,92,81,30.58,30.29,14,3,14,0.00
2013-12-12,17.0,1.0,-9.0,13.0,-0.7,-11.0,98,93,80,30.58,30.21,14,2,14,0.00
2013-12-13,17.0,4.7,-9.0,13.0,3.2,-10.0,97,93,84,30.21,30.03,7,0,9,0.00
2013-12-14,19.0,5.8,-3.0,16.0,4.3,-4.0,98,94,86,30.50,30.20,13,3,13,0.00
2013-12-15,24.0,7.3,-2.0,20.0,5.7,-3.0,99,93,81,30.52,30.44,12,3,13,0.00
2013-12-16,25.0,11.4,2.0,22.0,9.5,1.0,100,93,81,30.57,30.47,13,3,14,0.00
2013-12-17,27.0,11.1,-1.0,22.0,8.8,-2.0,97,91,73,30.65,30.44,15,4,15,0.00
2013-12-18,25.0,12.6,1.0,20.0,10.4,0.0,98,91,79,30.44,29.97,13,4,13,0.00
2013-12-19,40.0,24.6,15.0,27.0,21.3,14.0,100,89,53,29.97,29.73,16,3,27,0.00
2013-12-20,32.0,23.5,9.0,29.0,22.6,8.0,100,97,87,29.78,29.68,11,3,14,0.00
2013-12-21,24.0,11.8,-2.0,21.0,9.6,-3.0,99,91,82,29.86,29.58,11,1,15,0.00
2013-12-22,19.0,7.3,-8.0,15.0,5.3,-9.0,98,92,77,30.25,29.86,8,1,8,0.00
2013-12-23,30.0,18.5,12.0,21.0,15.7,10.0,100,89,69,30.48,30.24,20,3,20,0.00
2013-12-24,31.0,17.4,-3.0,28.0,15.4,-5.0,100,92,74,30.43,30.19,19,5,26,0.00
2013-12-25,17.0,1.1,-11.0,10.0,-1.6,-13.0,95,88,71,30.53,30.42,15,6,15,0.00
2013-12-26,16.0,2.0,-9.0,11.0,-0.3,-10.0,96,90,77,30.54,30.44,14,4,14,0.00
2013-12-27,22.0,6.6,-2.0,17.0,4.8,-3.0,99,93,81,30.53,30.32,13,3,13,0.00
2013-12-28,22.0,9.1,-2.0,18.0,7.5,-3.0,99,93,81,30.32,30.01,10,1,11,0.00
2013-12-29,24.0,8.4,0.0,20.0,6.7,-2.0,99,93,80,30.23,30.02,11,3,12,0.00
2013-12-30,24.0,9.3,0.0,16.0,6.1,-2.0,98,87,70,30.39,30.18,13,3,14,0.00
2013-12-31,28.0,14.5,0.0,23.0,12.5,-2.0,99,92,78,30.37,30.17,11,2,11,0.00
2014-1-1,29.0,20.7,3.0,25.0,16.6,1.0,100,85,64,30.42,30.08,15,5,18,0.00
2014-1-2,22.0,7.0,-4.0,14.0,3.6,-5.0,97,87,69,30.46,30.31,15,6,15,0.00